• Join FlightAware (Why Join?)
  • Login
  • US Flag 
05:51PM EDT


 

Airport Tracker/Info


-or-


 

Live Flight TrackerFlight Track Log ✈ DAL110 ✈ 13-May-2013 ✈ SAEZ / EZE - KATL

Flight Track Log - Related Links

Times and Time Zones

All times are in EDT time to prevent confusion due to time zone crossing. See the DAL110 flight status page for this flight to view local times or setup timezone preferences in your user account.

Time Position Orientation Groundspeed Altitude Reporting Facility
EDT Latitude Longitude Course Direction KTS MPH feet Rate Location/Type
07:33PM -34.7115 -58.5811 339° North  Level FlightAware Approximate
07:34PM -34.5994 -58.6333 339° North  Level FlightAware Approximate
07:35PM -34.4874 -58.6853 339° North  Level FlightAware Approximate
07:36PM -34.3754 -58.7371 339° North  Level FlightAware Approximate
07:37PM -34.2633 -58.7889 339° North  Level FlightAware Approximate
07:38PM -34.1511 -58.8405 339° North  Level FlightAware Approximate
07:39PM -34.0390 -58.8919 339° North  Level FlightAware Approximate
07:40PM -33.9269 -58.9433 339° North  Level FlightAware Approximate
07:41PM -33.8147 -58.9945 339° North  Level FlightAware Approximate
07:42PM -33.7025 -59.0455 339° North  Level FlightAware Approximate
07:43PM -33.5903 -59.0964 339° North  Level FlightAware Approximate
07:44PM -33.4781 -59.1472 339° North  Level FlightAware Approximate
07:45PM -33.3647 -59.1984 339° North  Level FlightAware Approximate
07:46PM -33.2487 -59.2506 339° North  Level FlightAware Approximate
07:47PM -33.1356 -59.3022 339° North  Level FlightAware Approximate
07:48PM -33.0224 -59.3536 339° North  Level FlightAware Approximate
07:49PM -32.9091 -59.4050 339° North  Level FlightAware Approximate
07:50PM -32.7959 -59.4562 339° North  Level FlightAware Approximate
07:51PM -32.6827 -59.5073 339° North  Level FlightAware Approximate
07:52PM -32.5694 -59.5582 339° North  Level FlightAware Approximate
07:53PM -32.4561 -59.6091 339° North  Level FlightAware Approximate
07:54PM -32.3427 -59.6597 339° North  Level FlightAware Approximate
07:55PM -32.2294 -59.7103 339° North  Level FlightAware Approximate
07:56PM -32.1160 -59.7607 339° North  Level FlightAware Approximate
07:57PM -32.0026 -59.8111 339° North  Level FlightAware Approximate
07:58PM -31.8892 -59.8613 339° North  Level FlightAware Approximate
07:59PM -31.7758 -59.9113 339° North  Level FlightAware Approximate
08:00PM -31.6623 -59.9613 339° North  Level FlightAware Approximate
08:01PM -31.5489 -60.0111 339° North  Level FlightAware Approximate
08:02PM -31.4354 -60.0608 340° North  Level FlightAware Approximate
08:03PM -31.3219 -60.1104 340° North  Level FlightAware Approximate
08:04PM -31.2084 -60.1598 340° North  Level FlightAware Approximate
08:05PM -31.0948 -60.2092 340° North  Level FlightAware Approximate
08:06PM -30.9813 -60.2584 340° North  Level FlightAware Approximate
08:07PM -30.8677 -60.3075 340° North  Level FlightAware Approximate
08:08PM -30.7541 -60.3565 340° North  Level FlightAware Approximate
08:09PM -30.6405 -60.4054 340° North  Level FlightAware Approximate
08:10PM -30.5268 -60.4541 340° North  Level FlightAware Approximate
08:11PM -30.4132 -60.5028 340° North  Level FlightAware Approximate
08:12PM -30.2995 -60.5513 340° North  Level FlightAware Approximate
08:13PM -30.1853 -60.6000 340° North  Level FlightAware Approximate
08:14PM -30.0710 -60.6485 340° North  Level FlightAware Approximate
08:15PM -29.9567 -60.6970 340° North  Level FlightAware Approximate
08:16PM -29.8424 -60.7453 340° North  Level FlightAware Approximate
08:17PM -29.7281 -60.7935 340° North  Level FlightAware Approximate
08:18PM -29.6137 -60.8416 340° North  Level FlightAware Approximate
08:19PM -29.4994 -60.8896 340° North  Level FlightAware Approximate
08:20PM -29.3850 -60.9375 340° North  Level FlightAware Approximate
08:21PM -29.2706 -60.9853 340° North  Level FlightAware Approximate
08:22PM -29.1562 -61.0330 340° North  Level FlightAware Approximate
08:23PM -29.0418 -61.0806 340° North  Level FlightAware Approximate
08:24PM -28.9273 -61.1280 340° North  Level FlightAware Approximate
08:25PM -28.8129 -61.1754 340° North  Level FlightAware Approximate
08:26PM -28.6984 -61.2226 340° North  Level FlightAware Approximate
08:27PM -28.5839 -61.2698 340° North  Level FlightAware Approximate
08:28PM -28.4694 -61.3168 340° North  Level FlightAware Approximate
08:29PM -28.3549 -61.3638 340° North  Level FlightAware Approximate
08:30PM -28.2403 -61.4106 340° North  Level FlightAware Approximate
08:31PM -28.1258 -61.4574 340° North  Level FlightAware Approximate
08:32PM -28.0112 -61.5040 340° North  Level FlightAware Approximate
08:33PM -27.8966 -61.5506 340° North  Level FlightAware Approximate
08:34PM -27.7820 -61.5970 340° North  Level FlightAware Approximate
08:35PM -27.6674 -61.6434 340° North  Level FlightAware Approximate
08:36PM -27.5527 -61.6896 340° North  Level FlightAware Approximate
08:37PM -27.4381 -61.7358 340° North  Level FlightAware Approximate
08:38PM -27.3234 -61.7819 340° North  Level FlightAware Approximate
08:39PM -27.2087 -61.8278 340° North  Level FlightAware Approximate
08:40PM -27.0940 -61.8737 340° North  Level FlightAware Approximate
08:41PM -26.9793 -61.9195 340° North  Level FlightAware Approximate
08:42PM -26.8646 -61.9652 340° North  Level FlightAware Approximate
08:43PM -26.7499 -62.0107 340° North  Level FlightAware Approximate
08:44PM -26.6351 -62.0563 340° North  Level FlightAware Approximate
08:45PM -26.5204 -62.1017 341° North  Level FlightAware Approximate
08:46PM -26.4056 -62.1470 341° North  Level FlightAware Approximate
08:47PM -26.2908 -62.1922 341° North  Level FlightAware Approximate
08:48PM -26.1760 -62.2374 341° North  Level FlightAware Approximate
08:49PM -26.0611 -62.2824 341° North  Level FlightAware Approximate
08:50PM -25.9463 -62.3274 341° North  Level FlightAware Approximate
08:51PM -25.8314 -62.3722 341° North  Level FlightAware Approximate
08:52PM -25.7166 -62.4170 341° North  Level FlightAware Approximate
08:53PM -25.6017 -62.4617 341° North  Level FlightAware Approximate
08:54PM -25.4868 -62.5063 341° North  Level FlightAware Approximate
08:55PM -25.3719 -62.5509 341° North  Level FlightAware Approximate
08:56PM -25.2570 -62.5953 341° North  Level FlightAware Approximate
08:57PM -25.1420 -62.6397 341° North  Level FlightAware Approximate
08:58PM -25.0271 -62.6839 341° North  Level FlightAware Approximate
08:59PM -24.9121 -62.7281 341° North  Level FlightAware Approximate
09:00PM -24.7972 -62.7722 341° North  Level FlightAware Approximate
09:01PM -24.6822 -62.8163 341° North  Level FlightAware Approximate
09:02PM -24.5672 -62.8602 341° North  Level FlightAware Approximate
09:03PM -24.4522 -62.9041 341° North  Level FlightAware Approximate
09:04PM -24.3372 -62.9479 341° North  Level FlightAware Approximate
09:05PM -24.2221 -62.9916 341° North  Level FlightAware Approximate
09:06PM -24.1071 -63.0352 341° North  Level FlightAware Approximate
09:07PM -23.9920 -63.0788 341° North  Level FlightAware Approximate
09:08PM -23.8769 -63.1222 341° North  Level FlightAware Approximate
09:09PM -23.7618 -63.1656 341° North  Level FlightAware Approximate
09:10PM -23.6467 -63.2090 341° North  Level FlightAware Approximate
09:11PM -23.5316 -63.2522 341° North  Level FlightAware Approximate
09:12PM -23.4165 -63.2954 341° North  Level FlightAware Approximate
09:13PM -23.3014 -63.3385 341° North  Level FlightAware Approximate
09:14PM -23.1862 -63.3815 341° North  Level FlightAware Approximate
09:15PM -23.0711 -63.4244 341° North  Level FlightAware Approximate
09:16PM -22.9559 -63.4673 341° North  Level FlightAware Approximate
09:17PM -22.8407 -63.5101 341° North  Level FlightAware Approximate
09:18PM -22.7255 -63.5528 341° North  Level FlightAware Approximate
09:19PM -22.6103 -63.5955 341° North  Level FlightAware Approximate
09:20PM -22.4951 -63.6381 341° North  Level FlightAware Approximate
09:21PM -22.3799 -63.6806 341° North  Level FlightAware Approximate
09:22PM -22.2647 -63.7230 341° North  Level FlightAware Approximate
09:23PM -22.1494 -63.7654 341° North  Level FlightAware Approximate
09:24PM -22.0343 -63.8076 341° North  Level FlightAware Approximate
09:25PM -21.9193 -63.8498 341° North  Level FlightAware Approximate
09:26PM -21.8042 -63.8919 341° North  Level FlightAware Approximate
09:27PM -21.6891 -63.9339 341° North  Level FlightAware Approximate
09:28PM -21.5739 -63.9758 341° North  Level FlightAware Approximate
09:29PM -21.4588 -64.0177 341° North  Level FlightAware Approximate
09:30PM -21.3437 -64.0596 341° North  Level FlightAware Approximate
09:31PM -21.2286 -64.1013 341° North  Level FlightAware Approximate
09:32PM -21.1134 -64.1430 341° North  Level FlightAware Approximate
09:33PM -20.9982 -64.1847 341° North  Level FlightAware Approximate
09:34PM -20.8831 -64.2262 341° North  Level FlightAware Approximate
09:35PM -20.7679 -64.2677 341° North  Level FlightAware Approximate
09:36PM -20.6527 -64.3092 341° North  Level FlightAware Approximate
09:37PM -20.5375 -64.3505 341° North  Level FlightAware Approximate
09:38PM -20.4223 -64.3919 341° North  Level FlightAware Approximate
09:39PM -20.3071 -64.4331 341° North  Level FlightAware Approximate
09:40PM -20.1919 -64.4743 341° North  Level FlightAware Approximate
09:41PM -20.0766 -64.5154 341° North  Level FlightAware Approximate
09:42PM -19.9614 -64.5565 341° North  Level FlightAware Approximate
09:43PM -19.8461 -64.5975 341° North  Level FlightAware Approximate
09:44PM -19.7308 -64.6385 342° North  Level FlightAware Approximate
09:45PM -19.6155 -64.6794 342° North  Level FlightAware Approximate
09:46PM -19.5003 -64.7202 342° North  Level FlightAware Approximate
09:47PM -19.3850 -64.7610 342° North  Level FlightAware Approximate
09:48PM -19.2696 -64.8017 342° North  Level FlightAware Approximate
09:49PM -19.1543 -64.8423 342° North  Level FlightAware Approximate
09:50PM -19.0390 -64.8829 342° North  Level FlightAware Approximate
09:51PM -18.9237 -64.9235 342° North  Level FlightAware Approximate
09:52PM -18.8083 -64.9640 342° North  Level FlightAware Approximate
09:53PM -18.6930 -65.0044 342° North  Level FlightAware Approximate
09:54PM -18.5776 -65.0448 342° North  Level FlightAware Approximate
09:55PM -18.4623 -65.0851 342° North  Level FlightAware Approximate
09:56PM -18.3469 -65.1254 342° North  Level FlightAware Approximate
09:57PM -18.2315 -65.1656 342° North  Level FlightAware Approximate
09:58PM -18.1161 -65.2058 342° North  Level FlightAware Approximate
09:59PM -18.0007 -65.2459 342° North  Level FlightAware Approximate
10:00PM -17.8853 -65.2860 342° North  Level FlightAware Approximate
10:01PM -17.7699 -65.3260 342° North  Level FlightAware Approximate
10:02PM -17.6544 -65.3659 342° North  Level FlightAware Approximate
10:03PM -17.5390 -65.4059 342° North  Level FlightAware Approximate
10:04PM -17.4236 -65.4457 342° North  Level FlightAware Approximate
10:05PM -17.3081 -65.4855 342° North  Level FlightAware Approximate
10:06PM -17.1927 -65.5253 342° North  Level FlightAware Approximate
10:07PM -17.0772 -65.5650 342° North  Level FlightAware Approximate
10:08PM -16.9617 -65.6046 342° North  Level FlightAware Approximate
10:09PM -16.8463 -65.6442 342° North  Level FlightAware Approximate
10:10PM -16.7308 -65.6838 342° North  Level FlightAware Approximate
10:11PM -16.6153 -65.7233 342° North  Level FlightAware Approximate
10:12PM -16.4998 -65.7628 342° North  Level FlightAware Approximate
10:13PM -16.3843 -65.8022 342° North  Level FlightAware Approximate
10:14PM -16.2687 -65.8416 342° North  Level FlightAware Approximate
10:15PM -16.1532 -65.8809 342° North  Level FlightAware Approximate
10:16PM -16.0377 -65.9202 342° North  Level FlightAware Approximate
10:17PM -15.9221 -65.9594 342° North  Level FlightAware Approximate
10:18PM -15.8066 -65.9986 342° North  Level FlightAware Approximate
10:19PM -15.6910 -66.0377 342° North  Level FlightAware Approximate
10:20PM -15.5755 -66.0768 342° North  Level FlightAware Approximate
10:21PM -15.4599 -66.1159 342° North  Level FlightAware Approximate
10:22PM -15.3443 -66.1549 342° North  Level FlightAware Approximate
10:23PM -15.2288 -66.1938 342° North  Level FlightAware Approximate
10:24PM -15.1132 -66.2328 342° North  Level FlightAware Approximate
10:25PM -14.9976 -66.2717 342° North  Level FlightAware Approximate
10:26PM -14.8820 -66.3105 342° North  Level FlightAware Approximate
10:27PM -14.7664 -66.3493 342° North  Level FlightAware Approximate
10:28PM -14.6508 -66.3880 342° North  Level FlightAware Approximate
10:29PM -14.5351 -66.4268 342° North  Level FlightAware Approximate
10:30PM -14.4195 -66.4654 342° North  Level FlightAware Approximate
10:31PM -14.3039 -66.5041 342° North  Level FlightAware Approximate
10:32PM -14.1882 -66.5427 342° North  Level FlightAware Approximate
10:33PM -14.0726 -66.5813 342° North  Level FlightAware Approximate
10:34PM -13.9569 -66.6198 342° North  Level FlightAware Approximate
10:35PM -13.8413 -66.6582 342° North  Level FlightAware Approximate
10:36PM -13.7256 -66.6967 342° North  Level FlightAware Approximate
10:37PM -13.6099 -66.7351 342° North  Level FlightAware Approximate
10:38PM -13.4943 -66.7735 342° North  Level FlightAware Approximate
10:39PM -13.3786 -66.8118 342° North  Level FlightAware Approximate
10:40PM -13.2629 -66.8501 342° North  Level FlightAware Approximate
10:41PM -13.1472 -66.8883 342° North  Level FlightAware Approximate
10:42PM -13.0315 -66.9266 342° North  Level FlightAware Approximate
10:43PM -12.9158 -66.9647 342° North  Level FlightAware Approximate
10:44PM -12.8003 -67.0028 342° North  Level FlightAware Approximate
10:45PM -12.6848 -67.0409 342° North  Level FlightAware Approximate
10:46PM -12.5692 -67.0789 342° North  Level FlightAware Approximate
10:47PM -12.4537 -67.1169 342° North  Level FlightAware Approximate
10:48PM -12.3382 -67.1548 342° North  Level FlightAware Approximate
10:49PM -12.2226 -67.1927 342° North  Level FlightAware Approximate
10:50PM -12.1070 -67.2306 342° North  Level FlightAware Approximate
10:51PM -11.9915 -67.2684 342° North  Level FlightAware Approximate
10:52PM -11.8759 -67.3063 342° North  Level FlightAware Approximate
10:53PM -11.7604 -67.3440 342° North  Level FlightAware Approximate
10:54PM -11.6448 -67.3818 342° North  Level FlightAware Approximate
10:55PM -11.5292 -67.4195 342° North  Level FlightAware Approximate
10:56PM -11.4136 -67.4572 342° North  Level FlightAware Approximate
10:57PM -11.2980 -67.4949 342° North  Level FlightAware Approximate
10:58PM -11.1825 -67.5325 342° North  Level FlightAware Approximate
10:59PM -11.0668 -67.5701 342° North  Level FlightAware Approximate
11:00PM -10.9513 -67.6077 342° North  Level FlightAware Approximate
11:01PM -10.8357 -67.6452 342° North  Level FlightAware Approximate
11:02PM -10.7200 -67.6827 342° North  Level FlightAware Approximate
11:03PM -10.6044 -67.7202 342° North  Level FlightAware Approximate
11:04PM -10.4888 -67.7577 342° North  Level FlightAware Approximate
11:05PM -10.3732 -67.7951 342° North  Level FlightAware Approximate
11:06PM -10.2576 -67.8325 342° North  Level FlightAware Approximate
11:07PM -10.1419 -67.8699 342° North  Level FlightAware Approximate
11:08PM -10.0263 -67.9072 342° North  Level FlightAware Approximate
11:09PM -9.9107 -67.9445 342° North  Level FlightAware Approximate
11:10PM -9.7950 -67.9818 342° North  Level FlightAware Approximate
11:11PM -9.6794 -68.0191 342° North  Level FlightAware Approximate
11:12PM -9.5637 -68.0563 342° North  Level FlightAware Approximate
11:13PM -9.4480 -68.0935 342° North  Level FlightAware Approximate
11:14PM -9.3324 -68.1307 342° North  Level FlightAware Approximate
11:15PM -9.2167 -68.1679 342° North  Level FlightAware Approximate
11:16PM -9.1011 -68.2050 342° North  Level FlightAware Approximate
11:17PM -8.9854 -68.2421 342° North  Level FlightAware Approximate
11:18PM -8.8697 -68.2792 342° North  Level FlightAware Approximate
11:19PM -8.7540 -68.3163 342° North  Level FlightAware Approximate
11:20PM -8.6384 -68.3533 342° North  Level FlightAware Approximate
11:21PM -8.5227 -68.3904 342° North  Level FlightAware Approximate
11:22PM -8.4070 -68.4274 342° North  Level FlightAware Approximate
11:23PM -8.2913 -68.4643 342° North  Level FlightAware Approximate
11:24PM -8.1756 -68.5013 342° North  Level FlightAware Approximate
11:25PM -8.0599 -68.5382 342° North  Level FlightAware Approximate
11:26PM -7.9442 -68.5751 342° North  Level FlightAware Approximate
11:27PM -7.8285 -68.6120 342° North  Level FlightAware Approximate
11:28PM -7.7128 -68.6489 342° North  Level FlightAware Approximate
11:29PM -7.5971 -68.6858 342° North  Level FlightAware Approximate
11:30PM -7.4813 -68.7226 342° North  Level FlightAware Approximate
11:31PM -7.3656 -68.7594 342° North  Level FlightAware Approximate
11:32PM -7.2499 -68.7962 342° North  Level FlightAware Approximate
11:33PM -7.1342 -68.8330 342° North  Level FlightAware Approximate
11:34PM -7.0184 -68.8697 343° North  Level FlightAware Approximate
11:35PM -6.9027 -68.9065 343° North  Level FlightAware Approximate
11:36PM -6.7870 -68.9432 343° North  Level FlightAware Approximate
11:37PM -6.6712 -68.9799 343° North  Level FlightAware Approximate
11:38PM -6.5555 -69.0166 343° North  Level FlightAware Approximate
11:39PM -6.4398 -69.0532 343° North  Level FlightAware Approximate
11:40PM -6.3240 -69.0899 343° North  Level FlightAware Approximate
11:41PM -6.2083 -69.1265 343° North  Level FlightAware Approximate
11:42PM -6.0925 -69.1631 343° North  Level FlightAware Approximate
11:43PM -5.9768 -69.1998 343° North  Level FlightAware Approximate
11:44PM -5.8610 -69.2363 343° North  Level FlightAware Approximate
11:45PM -5.7453 -69.2729 343° North  Level FlightAware Approximate
11:46PM -5.6295 -69.3095 343° North  Level FlightAware Approximate
11:47PM -5.5138 -69.3460 343° North  Level FlightAware Approximate
11:48PM -5.3980 -69.3825 343° North  Level FlightAware Approximate
11:49PM -5.2822 -69.4191 343° North  Level FlightAware Approximate
11:50PM -5.1665 -69.4556 343° North  Level FlightAware Approximate
11:51PM -5.0507 -69.4921 343° North  Level FlightAware Approximate
11:52PM -4.9349 -69.5285 343° North  Level FlightAware Approximate
11:53PM -4.8191 -69.5650 343° North  Level FlightAware Approximate
11:54PM -4.7034 -69.6014 343° North  Level FlightAware Approximate
11:55PM -4.5876 -69.6379 343° North  Level FlightAware Approximate
11:56PM -4.4718 -69.6743 343° North  Level FlightAware Approximate
11:57PM -4.3560 -69.7107 343° North  Level FlightAware Approximate
11:58PM -4.2403 -69.7471 343° North  Level FlightAware Approximate
11:59PM -4.1251 -69.7833 343° North  Level FlightAware Approximate
12:00AM -4.0098 -69.8195 343° North  Level FlightAware Approximate
12:01AM -3.8946 -69.8557 343° North  Level FlightAware Approximate
12:02AM -3.7794 -69.8919 343° North  Level FlightAware Approximate
12:03AM -3.6642 -69.9281 343° North  Level FlightAware Approximate
12:04AM -3.5489 -69.9642 343° North  Level FlightAware Approximate
12:05AM -3.4337 -70.0004 343° North  Level FlightAware Approximate
12:06AM -3.3185 -70.0365 343° North  Level FlightAware Approximate
12:07AM -3.2033 -70.0727 343° North  Level FlightAware Approximate
12:08AM -3.0880 -70.1088 343° North  Level FlightAware Approximate
12:09AM -2.9728 -70.1449 343° North  Level FlightAware Approximate
12:10AM -2.8576 -70.1810 343° North  Level FlightAware Approximate
12:11AM -2.7424 -70.2171 343° North  Level FlightAware Approximate
12:12AM -2.6271 -70.2532 343° North  Level FlightAware Approximate
12:13AM -2.5119 -70.2893 343° North  Level FlightAware Approximate
12:14AM -2.3967 -70.3254 343° North  Level FlightAware Approximate
12:15AM -2.2814 -70.3615 343° North  Level FlightAware Approximate
12:16AM -2.1662 -70.3976 343° North  Level FlightAware Approximate
12:17AM -2.0510 -70.4336 343° North  Level FlightAware Approximate
12:18AM -1.9357 -70.4697 343° North  Level FlightAware Approximate
12:19AM -1.8205 -70.5058 343° North  Level FlightAware Approximate
12:20AM -1.7052 -70.5418 343° North  Level FlightAware Approximate
12:21AM -1.5900 -70.5779 343° North  Level FlightAware Approximate
12:22AM -1.4748 -70.6139 343° North  Level FlightAware Approximate
12:23AM -1.3595 -70.6499 343° North  Level FlightAware Approximate
12:24AM -1.2443 -70.6860 343° North  Level FlightAware Approximate
12:25AM -1.1290 -70.7220 343° North  Level FlightAware Approximate
12:26AM -1.0138 -70.7581 343° North  Level FlightAware Approximate
12:27AM -0.8986 -70.7941 343° North  Level FlightAware Approximate
12:28AM -0.7833 -70.8301 343° North  Level FlightAware Approximate
12:29AM -0.6681 -70.8661 343° North  Level FlightAware Approximate
12:30AM -0.5528 -70.9022 343° North  Level FlightAware Approximate
12:31AM -0.4376 -70.9382 343° North  Level FlightAware Approximate
12:32AM -0.3224 -70.9742 343° North  Level FlightAware Approximate
12:33AM -0.2071 -71.0102 343° North  Level FlightAware Approximate
12:34AM -0.0919 -71.0462 343° North  Level FlightAware Approximate
12:35AM 0.0234 -71.0823 343° North  Level FlightAware Approximate
12:36AM 0.1386 -71.1183 343° North  Level FlightAware Approximate
12:37AM 0.2538 -71.1543 343° North  Level FlightAware Approximate
12:38AM 0.3691 -71.1903 343° North  Level FlightAware Approximate
12:39AM 0.4843 -71.2263 343° North  Level FlightAware Approximate
12:40AM 0.5996 -71.2624 343° North  Level FlightAware Approximate
12:41AM 0.7148 -71.2984 343° North  Level FlightAware Approximate
12:42AM 0.8300 -71.3344 343° North  Level FlightAware Approximate
12:43AM 0.9453 -71.3705 343° North  Level FlightAware Approximate
12:44AM 1.0605 -71.4065 343° North  Level FlightAware Approximate
12:45AM 1.1758 -71.4425 343° North  Level FlightAware Approximate
12:46AM 1.2910 -71.4786 343° North  Level FlightAware Approximate
12:47AM 1.4062 -71.5146 343° North  Level FlightAware Approximate
12:48AM 1.5215 -71.5506 343° North  Level FlightAware Approximate
12:49AM 1.6367 -71.5867 343° North  Level FlightAware Approximate
12:50AM 1.7520 -71.6227 343° North  Level FlightAware Approximate
12:51AM 1.8672 -71.6588 343° North  Level FlightAware Approximate
12:52AM 1.9824 -71.6949 343° North  Level FlightAware Approximate
12:53AM 2.0977 -71.7309 343° North  Level FlightAware Approximate
12:54AM 2.2129 -71.7670 343° North  Level FlightAware Approximate
12:55AM 2.3282 -71.8031 343° North  Level FlightAware Approximate
12:56AM 2.4434 -71.8392 343° North  Level FlightAware Approximate
12:57AM 2.5586 -71.8753 343° North  Level FlightAware Approximate
12:58AM 2.6738 -71.9113 343° North  Level FlightAware Approximate
12:59AM 2.7891 -71.9474 343° North  Level FlightAware Approximate
01:00AM 2.9043 -71.9836 343° North  Level FlightAware Approximate
01:01AM 3.0195 -72.0197 343° North  Level FlightAware Approximate
01:02AM 3.1348 -72.0558 343° North  Level FlightAware Approximate
01:03AM 3.2500 -72.0919 343° North  Level FlightAware Approximate
01:04AM 3.3652 -72.1281 343° North  Level FlightAware Approximate
01:05AM 3.4804 -72.1642 343° North  Level FlightAware Approximate
01:06AM 3.5956 -72.2004 343° North  Level FlightAware Approximate
01:07AM 3.7109 -72.2365 343° North  Level FlightAware Approximate
01:08AM 3.8261 -72.2727 343° North  Level FlightAware Approximate
01:09AM 3.9413 -72.3089 343° North  Level FlightAware Approximate
01:10AM 4.0565 -72.3451 343° North  Level FlightAware Approximate
01:11AM 4.1717 -72.3813 343° North  Level FlightAware Approximate
01:12AM 4.2870 -72.4175 343° North  Level FlightAware Approximate
01:13AM 4.4022 -72.4538 343° North  Level FlightAware Approximate
01:14AM 4.5174 -72.4900 343° North  Level FlightAware Approximate
01:15AM 4.6326 -72.5263 343° North  Level FlightAware Approximate
01:16AM 4.7478 -72.5625 343° North  Level FlightAware Approximate
01:17AM 4.8630 -72.5988 343° North  Level FlightAware Approximate
01:18AM 4.9782 -72.6351 343° North  Level FlightAware Approximate
01:19AM 5.0934 -72.6714 343° North  Level FlightAware Approximate
01:20AM 5.2086 -72.7077 343° North  Level FlightAware Approximate
01:21AM 5.3238 -72.7440 343° North  Level FlightAware Approximate
01:22AM 5.4390 -72.7804 343° North  Level FlightAware Approximate
01:23AM 5.5542 -72.8167 343° North  Level FlightAware Approximate
01:24AM 5.6694 -72.8531 343° North  Level FlightAware Approximate
01:25AM 5.7846 -72.8895 343° North  Level FlightAware Approximate
01:26AM 5.8997 -72.9259 343° North  Level FlightAware Approximate
01:27AM 6.0149 -72.9623 343° North  Level FlightAware Approximate
01:28AM 6.1301 -72.9987 343° North  Level FlightAware Approximate
01:29AM 6.2453 -73.0352 343° North  Level FlightAware Approximate
01:30AM 6.3604 -73.0716 343° North  Level FlightAware Approximate
01:31AM 6.4756 -73.1081 343° North  Level FlightAware Approximate
01:32AM 6.5908 -73.1446 343° North  Level FlightAware Approximate
01:33AM 6.7060 -73.1811 343° North  Level FlightAware Approximate
01:34AM 6.8211 -73.2176 343° North  Level FlightAware Approximate
01:35AM 6.9363 -73.2542 343° North  Level FlightAware Approximate
01:36AM 7.0514 -73.2907 343° North  Level FlightAware Approximate
01:37AM 7.1666 -73.3273 343° North  Level FlightAware Approximate
01:38AM 7.2818 -73.3639 343° North  Level FlightAware Approximate
01:39AM 7.3969 -73.4005 342° North  Level FlightAware Approximate
01:40AM 7.5121 -73.4372 343° North  Level FlightAware Approximate
01:41AM 7.6273 -73.4737 343° North  Level FlightAware Approximate
01:42AM 7.7425 -73.5102 343° North  Level FlightAware Approximate
01:43AM 7.8576 -73.5468 343° North  Level FlightAware Approximate
01:44AM 7.9728 -73.5834 343° North  Level FlightAware Approximate
01:45AM 8.0880 -73.6200 343° North  Level FlightAware Approximate
01:46AM 8.2031 -73.6567 343° North  Level FlightAware Approximate
01:47AM 8.3183 -73.6933 343° North  Level FlightAware Approximate
01:48AM 8.4335 -73.7300 343° North  Level FlightAware Approximate
01:49AM 8.5486 -73.7667 343° North  Level FlightAware Approximate
01:50AM 8.6638 -73.8034 343° North  Level FlightAware Approximate
01:51AM 8.7789 -73.8402 342° North  Level FlightAware Approximate
01:52AM 8.8941 -73.8770 342° North  Level FlightAware Approximate
01:53AM 9.0092 -73.9137 342° North  Level FlightAware Approximate
01:54AM 9.1243 -73.9506 342° North  Level FlightAware Approximate
01:55AM 9.2395 -73.9874 342° North  Level FlightAware Approximate
01:56AM 9.3546 -74.0243 342° North  Level FlightAware Approximate
01:57AM 9.4697 -74.0612 342° North  Level FlightAware Approximate
01:58AM 9.5849 -74.0981 342° North  Level FlightAware Approximate
01:59AM 9.7000 -74.1350 342° North  Level FlightAware Approximate
02:00AM 9.8151 -74.1720 342° North  Level FlightAware Approximate
02:01AM 9.9302 -74.2090 342° North  Level FlightAware Approximate
02:02AM 10.0453 -74.2460 342° North  Level FlightAware Approximate
02:03AM 10.1604 -74.2830 342° North  Level FlightAware Approximate
02:04AM 10.2755 -74.3201 342° North  Level FlightAware Approximate
02:05AM 10.3907 -74.3570 343° North  Level FlightAware Approximate
02:06AM 10.5059 -74.3938 343° North  Level FlightAware Approximate
02:07AM 10.6210 -74.4306 343° North  Level FlightAware Approximate
02:08AM 10.7362 -74.4675 343° North  Level FlightAware Approximate
02:09AM 10.8514 -74.5044 343° North  Level FlightAware Approximate
02:10AM 10.9666 -74.5413 343° North  Level FlightAware Approximate
02:11AM 11.0817 -74.5783 343° North  Level FlightAware Approximate
02:12AM 11.1969 -74.6152 343° North  Level FlightAware Approximate
02:13AM 11.3120 -74.6523 343° North  Level FlightAware Approximate
02:14AM 11.4272 -74.6893 342° North  Level FlightAware Approximate
02:15AM 11.5423 -74.7264 342° North  Level FlightAware Approximate
02:16AM 11.6579 -74.7636 342° North  Level FlightAware Approximate
02:17AM 11.7734 -74.8008 342° North  Level FlightAware Approximate
02:18AM 11.8889 -74.8381 342° North  Level FlightAware Approximate
02:19AM 12.0044 -74.8755 342° North  Level FlightAware Approximate
02:20AM 12.1195 -74.9127 342° North  Level FlightAware Approximate
02:21AM 12.2346 -74.9501 342° North  Level FlightAware Approximate
02:22AM 12.3496 -74.9878 342° North  Level FlightAware Approximate
02:23AM 12.4646 -75.0255 342° North  Level FlightAware Approximate
02:24AM 12.5795 -75.0633 342° North  Level FlightAware Approximate
02:25AM 12.6945 -75.1010 342° North  Level FlightAware Approximate
02:26AM 12.8095 -75.1388 342° North  Level FlightAware Approximate
02:27AM 12.9245 -75.1767 342° North  Level FlightAware Approximate
02:28AM 13.0394 -75.2146 342° North  Level FlightAware Approximate
02:29AM 13.1544 -75.2525 342° North  Level FlightAware Approximate
02:30AM 13.2693 -75.2905 342° North  Level FlightAware Approximate
02:31AM 13.3843 -75.3284 342° North  Level FlightAware Approximate
02:32AM 13.4992 -75.3665 342° North  Level FlightAware Approximate
02:33AM 13.6141 -75.4045 342° North  Level FlightAware Approximate
02:34AM 13.7291 -75.4426 342° North  Level FlightAware Approximate
02:35AM 13.8440 -75.4808 342° North  Level FlightAware Approximate
02:36AM 13.9589 -75.5189 342° North  Level FlightAware Approximate
02:37AM 14.0738 -75.5572 342° North  Level FlightAware Approximate
02:38AM 14.1887 -75.5954 342° North  Level FlightAware Approximate
02:39AM 14.3036 -75.6337 342° North  Level FlightAware Approximate
02:40AM 14.4185 -75.6720 342° North  Level FlightAware Approximate
02:41AM 14.5334 -75.7104 342° North  Level FlightAware Approximate
02:42AM 14.6483 -75.7488 342° North  Level FlightAware Approximate
02:43AM 14.7631 -75.7872 342° North  Level FlightAware Approximate
02:44AM 14.8780 -75.8257 342° North  Level FlightAware Approximate
02:45AM 14.9929 -75.8643 342° North  Level FlightAware Approximate
02:46AM 15.1077 -75.9028 342° North  Level FlightAware Approximate
02:47AM 15.2226 -75.9413 342° North  Level FlightAware Approximate
02:48AM 15.3375 -75.9799 342° North  Level FlightAware Approximate
02:49AM 15.4523 -76.0185 342° North  Level FlightAware Approximate
02:50AM 15.5672 -76.0572 342° North  Level FlightAware Approximate
02:51AM 15.6820 -76.0959 342° North  Level FlightAware Approximate
02:52AM 15.7968 -76.1347 342° North  Level FlightAware Approximate
02:53AM 15.9117 -76.1735 342° North  Level FlightAware Approximate
02:54AM 16.0265 -76.2123 342° North  Level FlightAware Approximate
02:55AM 16.1413 -76.2512 342° North  Level FlightAware Approximate
02:56AM 16.2561 -76.2902 342° North  Level FlightAware Approximate
02:57AM 16.3709 -76.3291 342° North  Level FlightAware Approximate
02:58AM 16.4857 -76.3682 342° North  Level FlightAware Approximate
02:59AM 16.6005 -76.4072 342° North  Level FlightAware Approximate
03:00AM 16.7153 -76.4464 342° North  Level FlightAware Approximate
03:01AM 16.8300 -76.4855 342° North  Level FlightAware Approximate
03:02AM 16.9448 -76.5247 342° North  Level FlightAware Approximate
03:03AM 17.0595 -76.5640 342° North  Level FlightAware Approximate
03:04AM 17.1743 -76.6033 342° North  Level FlightAware Approximate
03:05AM 17.2890 -76.6427 342° North  Level FlightAware Approximate
03:06AM 17.4038 -76.6821 342° North  Level FlightAware Approximate
03:07AM 17.5185 -76.7215 342° North  Level FlightAware Approximate
03:08AM 17.6332 -76.7611 342° North  Level FlightAware Approximate
03:09AM 17.7479 -76.8006 342° North  Level FlightAware Approximate
03:10AM 17.8626 -76.8402 342° North  Level FlightAware Approximate
03:11AM 17.9773 -76.8799 342° North  Level FlightAware Approximate
03:12AM 18.0920 -76.9196 342° North  Level FlightAware Approximate
03:13AM 18.2067 -76.9594 342° North  Level FlightAware Approximate
03:14AM 18.3214 -76.9992 342° North  Level FlightAware Approximate
03:15AM 18.4360 -77.0390 342° North  Level FlightAware Approximate
03:16AM 18.5507 -77.0790 342° North  Level FlightAware Approximate
03:17AM 18.6653 -77.1189 342° North  Level FlightAware Approximate
03:18AM 18.7799 -77.1590 342° North  Level FlightAware Approximate
03:19AM 18.8946 -77.1991 342° North  Level FlightAware Approximate
03:20AM 19.0092 -77.2392 342° North  Level FlightAware Approximate
03:21AM 19.1238 -77.2794 342° North  Level FlightAware Approximate
03:22AM 19.2384 -77.3196 342° North  Level FlightAware Approximate
03:23AM 19.3530 -77.3600 342° North  Level FlightAware Approximate
03:24AM 19.4676 -77.4003 341° North  Level FlightAware Approximate
03:25AM 19.5814 -77.4429 341° North  Level FlightAware Approximate
03:26AM 19.6953 -77.4856 341° North  Level FlightAware Approximate
03:27AM 19.8092 -77.5283 341° North  Level FlightAware Approximate
03:28AM 19.9230 -77.5710 341° North  Level FlightAware Approximate
03:29AM 20.0371 -77.6131 342° North  Level FlightAware Approximate
03:30AM 20.1517 -77.6537 342° North  Level FlightAware Approximate
03:31AM 20.2662 -77.6943 342° North  Level FlightAware Approximate
03:32AM 20.3808 -77.7349 342° North  Level FlightAware Approximate
03:33AM 20.4953 -77.7757 342° North  Level FlightAware Approximate
03:34AM 20.6099 -77.8165 342° North  Level FlightAware Approximate
03:35AM 20.7244 -77.8573 342° North  Level FlightAware Approximate
03:36AM 20.8389 -77.8983 342° North  Level FlightAware Approximate
03:37AM 20.9534 -77.9392 342° North  Level FlightAware Approximate
03:38AM 21.0679 -77.9803 342° North  Level FlightAware Approximate
03:39AM 21.1824 -78.0214 341° North  Level FlightAware Approximate
03:40AM 21.2969 -78.0626 341° North  Level FlightAware Approximate
03:41AM 21.4114 -78.1038 341° North  Level FlightAware Approximate
03:42AM 21.5258 -78.1451 341° North  Level FlightAware Approximate
03:43AM 21.6403 -78.1864 341° North  Level FlightAware Approximate
03:44AM 21.7547 -78.2279 341° North  Level FlightAware Approximate
03:45AM 21.8692 -78.2694 341° North  Level FlightAware Approximate
03:46AM 21.9836 -78.3109 341° North  Level FlightAware Approximate
03:47AM 22.0980 -78.3526 341° North  Level FlightAware Approximate
03:48AM 22.2124 -78.3943 341° North  Level FlightAware Approximate
03:49AM 22.3268 -78.4360 341° North  Level FlightAware Approximate
03:50AM 22.4412 -78.4779 341° North  Level FlightAware Approximate
03:51AM 22.5555 -78.5198 341° North  Level FlightAware Approximate
03:52AM 22.6699 -78.5617 341° North  Level FlightAware Approximate
03:53AM 22.7842 -78.6038 341° North  Level FlightAware Approximate
03:53AM 22.6272 -78.3286 341° North 466 536 38,000  Level Miami Center
03:54AM 22.8986 -78.6459 341° North  Level FlightAware Approximate
03:54AM 22.7331 -78.3906 332° Northwest 444 511 38,000  Level Miami Center
03:55AM 23.0128 -78.6882 341° North  Level FlightAware Approximate
03:55AM 22.8411 -78.4525 332° Northwest 424 488 38,000  Level Miami Center
03:56AM 23.1268 -78.7316 341° North  Level FlightAware Approximate
03:56AM 22.9431 -78.4989 337° Northwest 417 480 38,000  Level Miami Center
03:57AM 23.2407 -78.7751 341° North  Level FlightAware Approximate
03:57AM 23.0467 -78.5544 334° Northwest 407 468 38,000  Level Miami Center
03:58AM 23.3547 -78.8186 341° North  Level FlightAware Approximate
03:58AM 23.1547 -78.6056 336° Northwest 419 482 38,000  Level Miami Center
03:59AM 23.4686 -78.8622 341° North  Level FlightAware Approximate
03:59AM 23.2692 -78.6569 338° Northwest 429 494 38,000  Level Miami Center
04:00AM 23.3775 -78.6922 343° North 422 486 38,000  Level Miami Center
04:01AM 23.4875 -78.7369 340° North 416 479 38,000  Level Miami Center
04:03AM 23.5978 -78.7794 341° North 416 479 38,000  Level Miami Center
04:03AM 23.7081 -78.8219 341° North 416 479 38,000  Level Miami Center
04:04AM 23.8181 -78.8667 340° North 416 479 38,000  Level Miami Center
04:05AM 23.9158 -78.9069 339° North 416 479 38,000  Level Miami Center
04:06AM 24.0178 -78.9450 341° North 403 464 38,000  Level Miami Center
04:07AM 24.1258 -78.9856 341° North 410 472 38,000  Level Miami Center
04:09AM 24.2381 -79.0306 340° North 405 466 38,000  Level Miami Center
04:09AM 24.3419 -79.0711 340° North 405 466 38,000  Level Miami Center
04:10AM 24.4478 -79.1142 340° North 410 472 38,000  Level Miami Center
04:11AM 24.5536 -79.1550 341° North 404 465 38,000  Level Miami Center
04:12AM 24.6700 -79.1936 343° North 404 465 38,000  Level Miami Center
04:13AM 24.7761 -79.2369 340° North 404 465 38,000  Level Miami Center
04:14AM 24.8819 -79.2800 340° North 399 459 38,000  Level Miami Center
04:15AM 24.9878 -79.3211 341° North 399 459 38,000  Level Miami Center
04:16AM 25.0958 -79.3622 341° North 405 466 38,000  Level Miami Center
04:18AM 25.2056 -79.4083 339° North 405 466 38,000  Level Miami Center
04:18AM 25.3136 -79.4494 341° North 405 466 38,000  Level Miami Center
04:19AM 25.4214 -79.4933 340° North 411 473 38,000  Level Miami Center
04:20AM 25.5272 -79.5369 340° North 411 473 38,000  Level Miami Center
04:21AM 25.6331 -79.5808 340° North 406 467 38,000  Level Miami Center
04:22AM 25.7428 -79.6247 340° North 411 473 38,000  Level Miami Center
04:23AM 25.8506 -79.6689 340° North 406 467 38,000  Level Miami Center
04:24AM 25.9586 -79.7106 341° North 406 467 38,000  Level Miami Center
04:25AM 26.0642 -79.7525 340° North 406 467 38,000  Level Miami Center
04:26AM 26.1697 -79.7989 338° Northwest 406 467 38,100 480 Climbing Miami Center
04:27AM 26.2756 -79.8411 340° North 406 467 39,000 420 Climbing Miami Center
04:29AM 26.3792 -79.8831 340° North 401 461 39,000  Level Miami Center
04:29AM 26.4847 -79.9275 339° North 401 461 39,000  Level Miami Center
04:30AM 26.5861 -79.9697 340° North 401 461 39,000  Level Miami Center
04:31AM 26.6794 -80.0069 340° North 396 456 39,000  Level Miami Center
04:33AM 26.8009 -80.0451 344° North  Level FlightAware Approximate
04:37AM 27.2917 -80.2642 339° North 393 452 39,000  Level Miami Center
04:39AM 27.3991 -80.3298 332° Northwest  Level Estimated
04:40AM 27.5901 -80.3739 340° North  Level FlightAware Approximate
04:41AM 27.7027 -80.4214 339° North  Level FlightAware Approximate
04:41AM 27.7050 -80.4361 331° Northwest 393 452 39,000  Level Miami Center
04:42AM 27.8152 -80.4691 339° North  Level FlightAware Approximate
04:42AM 27.8083 -80.4767 341° North 393 452 39,000  Level Miami Center
04:43AM 27.9277 -80.5168 339° North  Level FlightAware Approximate
04:43AM 27.9200 -80.5250 339° North 383 441 39,000  Level Miami Center
04:44AM 28.0253 -80.5661 341° North 389 448 39,000  Level Miami Center
04:45AM 28.1306 -80.6119 339° North 389 448 39,000  Level Miami Center
04:46AM 28.1377 -80.7848 332° Northwest  Level Estimated
04:46AM 28.2297 -80.6528 340° North 389 448 39,000  Level Miami Center
04:47AM 28.2431 -80.8503 331° Northwest  Level Estimated
04:49AM 28.4767 -80.7600 339° North 395 455 39,000  Level Jacksonville Center
04:50AM 28.5794 -80.8028 340° North 395 455 39,000  Level Jacksonville Center
04:51AM 28.6825 -80.8456 340° North 395 455 39,000  Level Jacksonville Center
04:52AM 28.7856 -80.8908 339° North 395 455 39,000  Level Jacksonville Center
04:53AM 28.8906 -80.9339 340° North 395 455 39,000  Level Jacksonville Center
04:54AM 28.9933 -80.9792 339° North 395 455 39,000  Level Jacksonville Center
04:55AM 29.0964 -81.0247 339° North 395 455 39,000  Level Jacksonville Center
04:56AM 29.1992 -81.0681 340° North 395 455 39,000  Level Jacksonville Center
04:57AM 29.3042 -81.1114 340° North 395 455 39,000  Level Jacksonville Center
04:58AM 29.4092 -81.1569 339° North 395 455 39,000  Level Jacksonville Center
04:59AM 29.4997 -81.2200 329° Northwest 390 449 39,000  Level Jacksonville Center
05:00AM 29.5967 -81.2853 330° Northwest 390 449 39,000  Level Jacksonville Center
05:01AM 29.6914 -81.3481 330° Northwest 390 449 39,000  Level Jacksonville Center
05:02AM 29.7861 -81.4111 330° Northwest 390 449 39,000  Level Jacksonville Center
05:03AM 29.8828 -81.4744 330° Northwest 395 455 39,000  Level Jacksonville Center
05:04AM 29.9794 -81.5403 329° Northwest 395 455 39,000  Level Jacksonville Center
05:05AM 30.0742 -81.6036 330° Northwest 395 455 39,000  Level Jacksonville Center
05:06AM 30.1689 -81.6672 330° Northwest 395 455 39,000  Level Jacksonville Center
05:07AM 30.2739 -81.7356 331° Northwest 395 455 39,000  Level Jacksonville Center
05:08AM 30.3706 -81.8019 329° Northwest 407 468 39,000  Level Jacksonville Center
05:09AM 30.4692 -81.8683 330° Northwest 407 468 39,000  Level Jacksonville Center
05:10AM 30.5678 -81.9397 328° Northwest 414 476 39,000 -420 Level Jacksonville Center
05:11AM 30.6642 -82.0039 330° Northwest 414 476 38,200 -540 Descending Jacksonville Center
05:12AM 30.7608 -82.0706 329° Northwest 408 470 38,000 -120 Descending Jacksonville Center
05:13AM 30.8572 -82.1375 329° Northwest 408 470 38,000  Level Jacksonville Center
05:14AM 30.9558 -82.2069 329° Northwest 408 470 38,000  Level Jacksonville Center
05:15AM 31.0542 -82.2767 329° Northwest 408 470 38,000  Level Jacksonville Center
05:16AM 31.1528 -82.3439 330° Northwest 408 470 38,000  Level Jacksonville Center
05:17AM 31.2533 -82.4089 331° Northwest 413 475 38,000  Level Jacksonville Center
05:19AM 31.4792 -82.5681 329° Northwest 412 474 38,000  Level Atlanta Center
05:20AM 31.5822 -82.6397 329° Northwest 412 474 38,000  Level Atlanta Center
05:21AM 31.6831 -82.7089 330° Northwest 417 480 38,000  Level Atlanta Center
05:22AM 31.7797 -82.7783 329° Northwest 417 480 38,000  Level Atlanta Center
05:23AM 31.8828 -82.8525 329° Northwest 417 480 38,000  Level Atlanta Center
05:24AM 31.9858 -82.9222 330° Northwest 417 480 38,000  Level Atlanta Center
05:25AM 32.0886 -82.9969 328° Northwest 417 480 38,000  Level Atlanta Center
05:26AM 32.1894 -83.0694 329° Northwest 422 486 38,000 -660 Level Atlanta Center
05:27AM 32.2944 -83.1419 330° Northwest 427 491 36,700 -2,460 Descending Atlanta Center
05:28AM 32.3950 -83.2147 329° Northwest 432 497 33,100 -3,360 Descending Atlanta Center
05:29AM 32.5000 -83.2900 329° Northwest 432 497 30,000 -2,820 Descending Atlanta Center
05:30AM 32.5983 -83.3608 329° Northwest 432 497 27,500 -2,520 Descending Atlanta Center
05:31AM 32.6928 -83.4267 330° Northwest 415 478 25,000 -2,580 Descending Atlanta Center
05:32AM 32.7806 -83.4953 327° Northwest 399 459 22,400 -2,640 Descending Atlanta Center
05:33AM 32.8708 -83.5567 330° Northwest 390 449 19,800 -2,340 Descending Atlanta Center
05:34AM 32.9564 -83.6206 328° Northwest 374 430 17,800 -2,220 Descending Atlanta Center
05:35AM 33.0361 -83.6769 329° Northwest 357 411 15,400 -2,280 Descending Atlanta Center
05:36AM 33.1114 -83.7339 328° Northwest 347 399 13,300 -2,340 Descending Atlanta Center
05:37AM 33.1500 -83.7833 313° West 332 382 12,000 -960 Descending Atlanta TRACON
05:38AM 33.2333 -83.8333 333° Northwest 329 379 11,900 -420 Descending Atlanta TRACON
05:39AM 33.3000 -83.9000 320° Northwest 309 356 11,200 -840 Descending Atlanta TRACON
05:39AM 33.3225 -83.9244 318° Northwest 309 356 10,700 -1,200 Descending Atlanta Center
05:40AM 33.3850 -83.9742 326° Northwest 281 323 9,400 -1,440 Descending Atlanta Center
05:41AM 33.4436 -84.0264 323° Northwest 267 307 7,900 -1,560 Descending Atlanta Center
05:42AM 33.5042 -84.0811 323° Northwest 262 302 6,300 -1,440 Descending Atlanta Center
05:43AM 33.5625 -84.1311 324° Northwest 262 302 5,100 -1,440 Descending Atlanta Center
05:44AM 33.5833 -84.1500 323° Northwest 244 281 4,200 -1,380 Descending Atlanta TRACON
05:45AM 33.6333 -84.2000 320° Northwest 238 274 3,200 -660 Descending Atlanta TRACON
05:46AM 33.6500 -84.2667 287° West 188 216 3,000 -240 Descending Atlanta TRACON